Flight Track Log - Related Links

Times and Time Zones

All times are in EDT time to prevent confusion due to time zone crossing. See the FIN666 flight status page for this flight to view local times or setup timezone preferences in your user account.

Time Position Orientation Groundspeed Altitude Reporting Facility
EDT Latitude Longitude Course Direction KTS MPH feet Rate Location/Type
Mon 07:33:00 AM 55.8329 13.1000 49° Northeast  Level Estimated
Mon 07:34:00 AM 55.9042 13.2491 50° Northeast  Level Estimated
Mon 07:35:00 AM 55.9753 13.3988 50° Northeast  Level Estimated
Mon 07:36:00 AM 56.0462 13.5490 50° Northeast  Level Estimated
Mon 07:37:00 AM 56.1210 13.7085 50° Northeast  Level Estimated
Mon 07:38:00 AM 56.1957 13.8686 50° Northeast  Level Estimated
Mon 07:39:00 AM 56.2701 14.0294 50° Northeast  Level Estimated
Mon 07:40:00 AM 56.3443 14.1908 50° Northeast  Level Estimated
Mon 07:41:00 AM 56.4183 14.3528 50° Northeast  Level Estimated
Mon 07:42:00 AM 56.4921 14.5154 51° Northeast  Level Estimated
Mon 07:43:00 AM 56.5657 14.6787 51° Northeast  Level Estimated
Mon 07:44:00 AM 56.6391 14.8426 51° Northeast  Level Estimated
Mon 07:45:00 AM 56.7122 15.0072 51° Northeast  Level Estimated
Mon 07:46:00 AM 56.7852 15.1724 51° Northeast  Level Estimated
Mon 07:47:00 AM 56.8579 15.3382 51° Northeast  Level Estimated
Mon 07:48:00 AM 56.9304 15.5047 51° Northeast  Level Estimated
Mon 07:49:00 AM 57.0026 15.6718 52° Northeast  Level Estimated
Mon 07:50:00 AM 57.0747 15.8396 52° Northeast  Level Estimated
Mon 07:51:00 AM 57.1465 16.0080 52° Northeast  Level Estimated
Mon 07:52:00 AM 57.2181 16.1771 52° Northeast  Level Estimated
Mon 07:53:00 AM 57.2895 16.3468 52° Northeast  Level Estimated
Mon 07:54:00 AM 57.3606 16.5172 52° Northeast  Level Estimated
Mon 07:55:00 AM 57.4315 16.6883 52° Northeast  Level Estimated
Mon 07:56:00 AM 57.5022 16.8600 53° Northeast  Level Estimated
Mon 07:57:00 AM 57.5727 17.0324 53° Northeast  Level Estimated
Mon 07:58:00 AM 57.6429 17.2054 53° Northeast  Level Estimated
Mon 07:59:00 AM 57.7128 17.3792 53° Northeast  Level Estimated
Mon 08:00:00 AM 57.7826 17.5535 53° Northeast  Level Estimated
Mon 08:01:00 AM 57.8521 17.7286 53° Northeast  Level Estimated
Mon 08:02:00 AM 57.9213 17.9044 53° Northeast  Level Estimated
Mon 08:03:00 AM 57.9903 18.0808 54° Northeast  Level Estimated
Mon 08:04:00 AM 58.0591 18.2579 54° Northeast  Level Estimated
Mon 08:05:00 AM 58.1276 18.4356 54° Northeast  Level Estimated
Mon 08:06:00 AM 58.1958 18.6141 54° Northeast  Level Estimated
Mon 08:07:00 AM 58.2638 18.7933 54° Northeast  Level Estimated
Mon 08:08:00 AM 58.3316 18.9731 54° Northeast  Level Estimated
Mon 08:09:00 AM 58.3991 19.1536 54° Northeast  Level Estimated
Mon 08:10:00 AM 58.4664 19.3349 55° Northeast  Level Estimated
Mon 08:11:00 AM 58.5334 19.5168 55° Northeast  Level Estimated
Mon 08:12:00 AM 58.6001 19.6994 55° Northeast  Level Estimated
Mon 08:13:00 AM 58.6666 19.8827 55° Northeast  Level Estimated
Mon 08:14:00 AM 58.7328 20.0667 55° Northeast  Level Estimated
Mon 08:15:00 AM 58.7988 20.2514 55° Northeast  Level Estimated
Mon 08:16:00 AM 58.8645 20.4368 56° Northeast  Level Estimated
Mon 08:17:00 AM 58.9299 20.6229 56° Northeast  Level Estimated
Mon 08:18:00 AM 58.9950 20.8097 56° Northeast  Level Estimated
Mon 08:19:00 AM 59.0599 20.9973 56° Northeast  Level Estimated
Mon 08:20:00 AM 59.1245 21.1855 56° Northeast  Level Estimated
Mon 08:21:00 AM 59.1889 21.3744 56° Northeast  Level Estimated
Mon 08:22:00 AM 59.2529 21.5641 56° Northeast  Level Estimated
Mon 08:23:00 AM 59.3167 21.7544 57° Northeast  Level Estimated
Mon 08:24:00 AM 59.3793 21.9428 57° Northeast  Level Estimated
Mon 08:25:00 AM 59.4417 22.1318 57° Northeast  Level Estimated
Mon 08:26:00 AM 59.5037 22.3216 57° Northeast  Level Estimated
Mon 08:27:00 AM 59.5655 22.5120 57° Northeast  Level Estimated
Mon 08:28:00 AM 59.6270 22.7031 57° Northeast  Level Estimated
Mon 08:29:00 AM 59.6883 22.8950 58° Northeast  Level Estimated
Mon 08:30:00 AM 59.7492 23.0875 58° Northeast  Level Estimated
Mon 08:31:00 AM 59.8099 23.2807 58° Northeast  Level Estimated
Mon 08:32:00 AM 59.8703 23.4747 58° Northeast  Level Estimated
Mon 08:33:00 AM 59.9303 23.6693 58° Northeast  Level Estimated
Mon 08:34:00 AM 59.9901 23.8647 58° Northeast  Level Estimated
Mon 08:35:00 AM 60.0497 24.0607 59° Northeast  Level Estimated
Mon 08:36:00 AM 60.1089 24.2575 59° Northeast  Level Estimated
Mon 08:37:00 AM 60.1743 24.4769 59° Northeast  Level Estimated
Mon 08:38:00 AM 60.2394 24.6973 59° Northeast  Level Estimated
Mon 08:39:00 AM 60.3042 24.9185 59° Northeast  Level Estimated
Mon 08:40:00 AM 60.3172 24.9633 60° Northeast  Level Estimated
Mon 08:41:00 AM 60.3172 24.9633 37° Northeast  Level Estimated
Mon 08:42:00 AM 60.3172 24.9633 37° Northeast  Level Estimated
Mon 08:43:00 AM 60.3172 24.9633 37° Northeast  Level Estimated
Mon 08:44:00 AM 60.3172 24.9633 37° Northeast  Level Estimated
Mon 08:45:00 AM 60.3172 24.9633 37° Northeast  Level Estimated
Mon 08:46:00 AM 60.3172 24.9633 37° Northeast  Level Estimated
Mon 08:47:00 AM 60.3172 24.9633 37° Northeast  Level Estimated
Mon 08:48:00 AM 60.3172 24.9633 37° Northeast  Level Estimated
Mon 08:49:00 AM 60.3172 24.9633 37° Northeast  Level Estimated

Login

Don't have an account? Register now (free) for customized features, flight alerts, and more!